Time;durP1;ratioP1;P1;durP2;ratioP2;P2;SDS_P1;SDS_P2;PMS_P1;PMS_P2;Temp;Humidity;BMP_temperature;BMP_pressure;BME280_temperature;BME280_humidity;BME280_pressure;Samples;Min_cycle;Max_cycle;Signal;HPM_P1;HPM_P2
2021/12/16 00:01:47;;;;;;;23.02;8.85;;;8.10;99.90;;;;;;5071626;28;20393;-44
2021/12/16 00:09:48;;;;;;;25.60;9.00;;;8.10;99.90;;;;;;5072315;28;20296;-44
2021/12/16 00:34:15;;;;;;;21.42;8.35;;;8.10;99.90;;;;;;5033284;28;20038;-44
2021/12/16 00:36:42;;;;;;;17.60;8.15;;;8.10;99.90;;;;;;5036484;28;20194;-43
2021/12/16 00:39:14;;;;;;;18.88;9.25;;;8.10;99.90;;;;;;5033529;28;20045;-44
2021/12/16 00:41:43;;;;;;;15.80;8.35;;;8.10;99.90;;;;;;5037986;28;20374;-44
2021/12/16 00:54:43;;;;;;;20.42;9.10;;;;;;;;;;5032549;28;20045;-45
2021/12/16 00:57:13;;;;;;;20.17;8.73;;;8.00;99.90;;;;;;5028450;28;20084;-44
2021/12/16 00:59:42;;;;;;;21.75;8.65;;;7.90;99.90;;;;;;5032570;28;20817;-43
2021/12/16 01:33:23;;;;;;;20.30;8.55;;;7.80;99.90;;;;;;5074484;28;20123;-47
2021/12/16 01:50:42;;;;;;;22.33;9.00;;;8.20;99.90;;;;;;5070896;28;20492;-44
2021/12/16 01:53:23;;;;;;;21.23;9.10;;;8.00;99.90;;;;;;5071927;28;20047;-44
2021/12/16 01:56:00;;;;;;;31.10;11.03;;;8.00;99.90;;;;;;5070906;28;20408;-45
2021/12/16 01:58:29;;;;;;;29.42;10.63;;;8.00;99.90;;;;;;5082763;28;20119;-44
2021/12/16 02:01:19;;;;;;;22.90;9.23;;;7.90;99.90;;;;;;5076894;28;20036;-48
2021/12/16 02:04:07;;;;;;;25.33;9.52;;;8.00;99.90;;;;;;5063481;28;20311;-43
2021/12/16 02:09:36;;;;;;;26.27;8.88;;;8.00;99.90;;;;;;5062688;28;20044;-46
2021/12/16 02:34:17;;;;;;;16.65;9.13;;;8.00;99.90;;;;;;5082165;28;20054;-45
2021/12/16 02:36:42;;;;;;;23.75;8.30;;;7.90;99.90;;;;;;5066830;28;20040;-43
2021/12/16 02:39:28;;;;;;;20.75;8.60;;;7.90;99.90;;;;;;5081981;28;20114;-43
2021/12/16 02:42:04;;;;;;;28.25;9.95;;;7.90;99.90;;;;;;5074572;28;20029;-44
2021/12/16 02:48:28;;;;;;;19.13;8.60;;;7.80;99.90;;;;;;5062569;28;20095;-43
2021/12/16 02:50:06;;;;;;;21.02;8.73;;;7.80;99.90;;;;;;5074966;28;20746;-44
2021/12/16 02:52:32;;;;;;;25.63;8.68;;;7.80;99.90;;;;;;5080244;28;20054;-43
2021/12/16 02:54:58;;;;;;;29.83;8.95;;;7.80;99.90;;;;;;5069437;28;20045;-43
2021/12/16 02:57:26;;;;;;;21.88;8.35;;;7.90;99.90;;;;;;5060617;28;20040;-43
2021/12/16 02:59:54;;;;;;;19.38;9.02;;;7.80;99.90;;;;;;5078398;28;20040;-42
2021/12/16 03:02:22;;;;;;;25.05;7.85;;;7.80;99.90;;;;;;5065495;28;20116;-43
2021/12/16 03:04:50;;;;;;;26.95;9.20;;;7.70;99.90;;;;;;5063710;28;20045;-44
2021/12/16 03:07:19;;;;;;;24.80;8.32;;;7.60;99.90;;;;;;5060241;28;20055;-44
2021/12/16 03:10:19;;;;;;;22.00;7.90;;;7.50;99.90;;;;;;5076452;28;20546;-43
2021/12/16 03:12:56;;;;;;;22.13;8.80;;;7.50;99.90;;;;;;5070783;28;20047;-44
2021/12/16 03:20:56;;;;;;;21.92;8.27;;;7.30;99.90;;;;;;5075067;28;20047;-48
2021/12/16 03:34:31;;;;;;;22.50;9.18;;;;;;;;;;5002021;28;20041;-46
2021/12/16 03:39:59;;;;;;;24.88;10.13;;;6.70;99.90;;;;;;4997973;28;20082;-47
2021/12/16 03:42:37;;;;;;;21.55;9.75;;;6.80;99.90;;;;;;4989715;28;20148;-47
2021/12/16 03:48:20;;;;;;;25.60;9.65;;;6.50;99.90;;;;;;5008478;28;20150;-43
2021/12/16 03:50:46;;;;;;;21.90;9.60;;;;;;;;;;5001322;28;20132;-48
2021/12/16 03:53:16;;;;;;;22.30;9.60;;;6.50;99.90;;;;;;5005002;28;20377;-42
2021/12/16 03:55:44;;;;;;;25.33;9.45;;;6.40;99.90;;;;;;5005870;28;20965;-42
2021/12/16 03:58:10;;;;;;;26.55;9.93;;;;;;;;;;5006004;28;20045;-45
2021/12/16 04:00:42;;;;;;;21.42;9.70;;;6.40;99.90;;;;;;5016969;28;20030;-48
2021/12/16 04:03:08;;;;;;;27.80;10.45;;;6.40;99.90;;;;;;5024897;28;20422;-44
2021/12/16 04:05:34;;;;;;;27.48;10.68;;;;;;;;;;5083926;28;20044;-43
2021/12/16 04:08:00;;;;;;;27.02;10.20;;;;;;;;;;5073576;28;20048;-43
2021/12/16 04:10:35;;;;;;;25.35;10.23;;;6.40;99.90;;;;;;5072414;28;20449;-44
2021/12/16 04:13:05;;;;;;;16.75;9.38;;;6.30;99.90;;;;;;5085089;28;20043;-45
2021/12/16 04:15:33;;;;;;;25.52;11.07;;;6.30;99.90;;;;;;5064207;28;20093;-48
2021/12/16 04:18:00;;;;;;;23.48;9.50;;;6.40;99.90;;;;;;5073882;28;20051;-44
2021/12/16 04:20:26;;;;;;;30.42;10.27;;;6.20;99.90;;;;;;5082719;28;20040;-47
2021/12/16 04:22:53;;;;;;;24.00;9.38;;;6.20;99.90;;;;;;5074101;28;20040;-43
2021/12/16 04:25:27;;;;;;;23.40;10.45;;;6.20;99.90;;;;;;5075645;28;20100;-44
2021/12/16 04:27:56;;;;;;;29.13;10.23;;;6.40;99.90;;;;;;5077484;28;20417;-44
2021/12/16 04:30:24;;;;;;;27.27;10.95;;;6.30;99.90;;;;;;5067637;28;20029;-43
2021/12/16 04:32:51;;;;;;;26.25;9.77;;;6.20;99.90;;;;;;5076023;28;20063;-43
2021/12/16 04:35:19;;;;;;;26.00;10.23;;;6.20;99.90;;;;;;5072041;28;20123;-44
2021/12/16 04:37:48;;;;;;;26.80;11.18;;;6.20;99.90;;;;;;5070411;28;20047;-44
2021/12/16 04:40:17;;;;;;;23.30;9.55;;;5.80;99.90;;;;;;5078668;28;20036;-43
2021/12/16 04:42:47;;;;;;;28.63;10.73;;;5.80;99.90;;;;;;5064943;28;20136;-46
2021/12/16 04:45:18;;;;;;;24.52;10.07;;;5.90;99.90;;;;;;5076943;28;20036;-45
2021/12/16 04:47:45;;;;;;;29.05;11.10;;;;;;;;;;5080942;28;20040;-44
2021/12/16 04:50:14;;;;;;;25.30;10.57;;;5.90;99.90;;;;;;5074551;28;20115;-44
2021/12/16 04:52:40;;;;;;;23.40;11.40;;;5.80;99.90;;;;;;5070135;28;20059;-43
2021/12/16 04:55:09;;;;;;;34.53;11.60;;;5.90;99.90;;;;;;5080171;28;20742;-43
2021/12/16 04:57:35;;;;;;;24.42;9.27;;;;;;;;;;5078233;28;20111;-43
2021/12/16 05:00:01;;;;;;;27.92;10.82;;;5.90;99.90;;;;;;5065418;28;20110;-45
2021/12/16 05:02:27;;;;;;;32.70;10.15;;;5.80;99.90;;;;;;5064543;28;20036;-42
2021/12/16 05:04:53;;;;;;;18.52;8.90;;;;;;;;;;5078334;28;20123;-46
2021/12/16 05:07:22;;;;;;;23.73;8.75;;;5.70;99.90;;;;;;5064172;28;20032;-43
2021/12/16 05:12:20;;;;;;;20.67;9.15;;;5.80;99.90;;;;;;5067940;28;20044;-43
2021/12/16 05:14:47;;;;;;;21.95;9.45;;;5.80;99.90;;;;;;5061951;28;20040;-43
2021/12/16 05:17:27;;;;;;;23.15;10.55;;;;;;;;;;5075506;28;20040;-43
2021/12/16 05:19:54;;;;;;;31.00;10.95;;;;;;;;;;5075386;28;20044;-43
2021/12/16 05:25:32;;;;;;;27.25;11.60;;;;;;;;;;5019493;28;20045;-44
2021/12/16 05:27:58;;;;;;;30.52;11.73;;;6.00;99.90;;;;;;5000964;28;21046;-45
2021/12/16 05:30:24;;;;;;;24.60;11.52;;;6.10;99.90;;;;;;5004541;28;20145;-44
2021/12/16 05:32:50;;;;;;;27.63;11.55;;;;;;;;;;5019218;28;20788;-44
2021/12/16 05:35:19;;;;;;;26.40;11.88;;;6.20;99.90;;;;;;5000920;28;20046;-43
2021/12/16 05:37:45;;;;;;;30.95;11.52;;;;;;;;;;5012474;28;20041;-44
2021/12/16 05:40:15;;;;;;;29.25;12.05;;;6.10;99.90;;;;;;5009081;28;20081;-44
2021/12/16 05:42:41;;;;;;;29.52;11.40;;;;;;;;;;5008998;28;22881;-42
2021/12/16 05:45:08;;;;;;;21.77;10.65;;;6.10;99.90;;;;;;5019386;28;20045;-44
2021/12/16 05:47:37;;;;;;;30.38;11.73;;;6.00;99.90;;;;;;5014623;28;20143;-47
2021/12/16 05:50:06;;;;;;;28.35;11.75;;;5.90;99.90;;;;;;5015772;28;20041;-43
2021/12/16 05:52:32;;;;;;;24.77;10.50;;;5.90;99.90;;;;;;5012553;28;20058;-44
2021/12/16 05:54:58;;;;;;;23.33;10.43;;;;;;;;;;5015146;28;20069;-44
2021/12/16 05:57:24;;;;;;;27.20;10.50;;;;;;;;;;5021318;28;20123;-47
2021/12/16 05:59:51;;;;;;;29.30;12.48;;;;;;;;;;5019302;28;20061;-42
2021/12/16 06:02:17;;;;;;;24.95;12.18;;;;;;;;;;5066186;28;20048;-43
2021/12/16 06:04:46;;;;;;;27.10;13.73;;;6.00;99.90;;;;;;5065846;28;20032;-46
2021/12/16 06:07:12;;;;;;;26.38;12.43;;;;;;;;;;5073215;28;20512;-43
2021/12/16 06:09:38;;;;;;;37.03;14.02;;;;;;;;;;5078718;28;20535;-43
2021/12/16 06:12:04;;;;;;;40.53;14.68;;;6.10;99.90;;;;;;5073829;28;20117;-43
2021/12/16 06:27:58;;;;;;;32.70;11.05;;;;;;;;;;5077757;28;20421;-48
2021/12/16 06:30:28;;;;;;;36.05;12.77;;;5.90;99.90;;;;;;5061889;28;20048;-43
2021/12/16 06:32:54;;;;;;;35.30;12.20;;;;;;;;;;5081398;28;20043;-42
2021/12/16 06:35:21;;;;;;;30.23;11.98;;;5.80;99.90;;;;;;5076642;28;20043;-45
2021/12/16 06:37:48;;;;;;;28.73;10.98;;;5.90;99.90;;;;;;5061148;28;20413;-44
2021/12/16 06:40:16;;;;;;;27.60;11.50;;;5.60;99.90;;;;;;5071172;28;20151;-46
2021/12/16 06:42:43;;;;;;;40.63;13.38;;;;;;;;;;5073512;28;20166;-44
2021/12/16 06:45:20;;;;;;;31.98;13.32;;;5.80;99.90;;;;;;5069816;28;20531;-43
2021/12/16 06:47:52;;;;;;;34.35;13.02;;;5.80;99.90;;;;;;5064814;28;20044;-47
2021/12/16 06:53:11;;;;;;;30.33;12.48;;;5.70;99.90;;;;;;5013862;28;20092;-43
2021/12/16 06:55:54;;;;;;;29.92;12.52;;;5.70;99.90;;;;;;5004099;28;20144;-43
2021/12/16 06:58:30;;;;;;;31.33;13.20;;;5.70;99.90;;;;;;5006775;28;20053;-43
2021/12/16 07:01:26;;;;;;;40.35;14.00;;;5.50;99.90;;;;;;5004965;28;20042;-43
2021/12/16 07:03:49;;;;;;;30.02;12.43;;;5.50;99.90;;;;;;5000392;28;20042;-43
2021/12/16 07:06:19;;;;;;;33.20;12.85;;;5.60;99.90;;;;;;5000496;28;20042;-45
2021/12/16 07:08:47;;;;;;;32.90;13.52;;;5.50;99.90;;;;;;5019804;28;20080;-42
2021/12/16 07:11:13;;;;;;;42.67;14.75;;;;;;;;;;5019196;28;20106;-43
2021/12/16 07:13:41;;;;;;;36.35;15.07;;;;;;;;;;5020099;28;20510;-43
2021/12/16 07:16:10;;;;;;;37.30;15.45;;;5.60;99.90;;;;;;5002162;28;20042;-42
2021/12/16 07:18:36;;;;;;;40.03;16.17;;;;;;;;;;5016742;28;21156;-44
2021/12/16 07:21:02;;;;;;;49.65;15.90;;;5.50;99.90;;;;;;5009258;28;20565;-42
2021/12/16 07:23:29;;;;;;;44.28;15.70;;;;;;;;;;5020610;28;20115;-42
2021/12/16 07:25:56;;;;;;;28.15;13.30;;;;;;;;;;5010069;28;20081;-43
2021/12/16 07:28:25;;;;;;;25.90;12.40;;;5.60;99.90;;;;;;5012571;28;20048;-42
2021/12/16 07:30:52;;;;;;;37.78;15.23;;;;;;;;;;5050403;28;20137;-42
2021/12/16 07:33:18;;;;;;;49.83;16.67;;;;;;;;;;5071664;28;20093;-49
2021/12/16 07:35:44;;;;;;;32.88;13.60;;;;;;;;;;5073862;28;20045;-42
2021/12/16 07:38:10;;;;;;;52.53;14.00;;;;;;;;;;5077900;28;20044;-43
2021/12/16 07:40:38;;;;;;;27.38;11.65;;;5.30;99.90;;;;;;5072178;28;20451;-44
2021/12/16 07:45:44;;;;;;;35.88;16.40;;;6.30;99.90;;;;;;5072534;28;20036;-44
2021/12/16 07:48:12;;;;;;;52.95;18.73;;;5.50;99.90;;;;;;5063140;28;20033;-44
2021/12/16 07:50:40;;;;;;;45.50;16.30;;;5.50;99.90;;;;;;5063873;28;20056;-43
2021/12/16 07:53:06;;;;;;;49.65;19.42;;;;;;;;;;5058825;28;20040;-43
2021/12/16 07:55:34;;;;;;;55.47;19.92;;;5.50;99.90;;;;;;5072931;28;20047;-43
2021/12/16 07:58:02;;;;;;;54.72;20.33;;;5.60;99.90;;;;;;5065516;28;20036;-42
2021/12/16 08:00:33;;;;;;;56.67;21.40;;;5.80;99.90;;;;;;5070358;28;20036;-43
2021/12/16 08:03:01;;;;;;;61.03;22.05;;;5.80;99.90;;;;;;5065986;28;20036;-44
2021/12/16 08:05:28;;;;;;;56.47;21.27;;;;;;;;;;5071669;28;20037;-43
2021/12/16 08:07:54;;;;;;;49.53;20.25;;;;;;;;;;5071849;28;20048;-43
2021/12/16 08:10:23;;;;;;;41.78;18.45;;;5.90;99.90;;;;;;5077172;28;20132;-42
2021/12/16 08:12:49;;;;;;;55.95;21.45;;;6.10;99.90;;;;;;5076906;28;20447;-44
2021/12/16 08:15:16;;;;;;;52.05;21.40;;;;;;;;;;5075772;28;20048;-42
2021/12/16 08:17:42;;;;;;;40.40;19.50;;;6.10;99.90;;;;;;5079947;28;20063;-43
2021/12/16 08:20:11;;;;;;;46.50;19.90;;;6.10;99.90;;;;;;5075638;28;20396;-43
2021/12/16 08:22:37;;;;;;;42.33;20.55;;;;;;;;;;5067284;28;20509;-42
2021/12/16 08:25:05;;;;;;;54.80;22.95;;;6.10;99.90;;;;;;5072914;28;20047;-42
2021/12/16 08:27:33;;;;;;;50.70;20.00;;;6.20;99.90;;;;;;5070389;28;20040;-42
2021/12/16 08:29:59;;;;;;;59.30;21.42;;;6.20;99.90;;;;;;5060202;28;20142;-47
2021/12/16 08:32:25;;;;;;;46.88;20.35;;;;;;;;;;5070749;28;20028;-49
2021/12/16 08:34:52;;;;;;;52.20;22.40;;;;;;;;;;5075103;28;20039;-43
2021/12/16 08:37:23;;;;;;;50.97;21.40;;;;;;;;;;5076256;28;20044;-44
2021/12/16 08:39:50;;;;;;;52.70;22.33;;;6.50;99.90;;;;;;5070420;28;20046;-42
2021/12/16 08:42:16;;;;;;;67.00;23.80;;;;;;;;;;5080105;28;20559;-47
2021/12/16 08:44:42;;;;;;;56.55;21.70;;;6.50;99.90;;;;;;5062380;28;20072;-43
2021/12/16 08:47:11;;;;;;;60.60;22.30;;;6.40;99.90;;;;;;5073573;28;20551;-44
2021/12/16 08:49:40;;;;;;;61.28;22.55;;;6.50;99.90;;;;;;5064286;28;20413;-43
2021/12/16 08:52:11;;;;;;;56.33;23.38;;;6.50;99.90;;;;;;5077410;28;20086;-43
2021/12/16 08:54:37;;;;;;;64.22;23.70;;;6.50;99.90;;;;;;5083890;28;20637;-42
2021/12/16 08:57:03;;;;;;;61.60;22.42;;;6.50;99.90;;;;;;5077644;28;20032;-42
2021/12/16 08:59:29;;;;;;;69.15;24.88;;;6.50;99.90;;;;;;5081915;28;20032;-42
2021/12/16 09:01:57;;;;;;;70.55;23.77;;;6.50;99.90;;;;;;5077540;28;20040;-43
2021/12/16 09:04:25;;;;;;;61.55;22.77;;;6.50;99.90;;;;;;5070442;28;20032;-48
2021/12/16 09:06:52;;;;;;;97.53;26.65;;;6.50;99.90;;;;;;5084927;28;20518;-44
2021/12/16 09:09:18;;;;;;;88.18;26.50;;;6.50;99.90;;;;;;5073597;28;20115;-44
2021/12/16 09:14:43;;;;;;;112.22;26.38;;;6.70;99.90;;;;;;5013579;28;20454;-43
2021/12/16 09:17:13;;;;;;;86.32;24.80;;;6.60;99.90;;;;;;5016280;28;22512;-43
2021/12/16 09:19:42;;;;;;;122.55;25.80;;;6.60;99.90;;;;;;5020604;28;20093;-44
2021/12/16 09:22:10;;;;;;;166.02;29.08;;;6.70;99.90;;;;;;5011676;28;20519;-45
2021/12/16 09:24:37;;;;;;;164.05;27.17;;;6.80;99.90;;;;;;5013765;28;20495;-43
2021/12/16 09:27:04;;;;;;;212.65;29.50;;;6.70;99.90;;;;;;5006739;28;20045;-43
2021/12/16 09:29:30;;;;;;;175.85;27.95;;;;;;;;;;5012598;28;20045;-49
2021/12/16 09:31:58;;;;;;;133.75;24.60;;;;;;;;;;5009370;28;20049;-42
2021/12/16 09:34:24;;;;;;;147.60;26.10;;;6.90;99.90;;;;;;5008153;28;20610;-43
2021/12/16 09:36:50;;;;;;;185.30;27.40;;;;;;;;;;5019828;28;20052;-44
2021/12/16 09:39:21;;;;;;;125.90;25.17;;;6.90;99.90;;;;;;5003508;28;20053;-42
2021/12/16 09:41:48;;;;;;;143.40;25.75;;;7.00;99.90;;;;;;5021260;28;20042;-42
2021/12/16 09:44:16;;;;;;;190.52;28.75;;;7.00;99.90;;;;;;5004209;28;20060;-45
2021/12/16 09:46:47;;;;;;;115.72;23.73;;;7.10;99.90;;;;;;5002478;28;20038;-43
2021/12/16 09:49:14;;;;;;;160.07;26.75;;;7.10;99.90;;;;;;5017867;28;20653;-46
2021/12/16 09:51:41;;;;;;;136.60;25.73;;;7.10;99.90;;;;;;5047048;28;20048;-44
2021/12/16 09:54:18;;;;;;;172.32;27.35;;;7.00;99.90;;;;;;5066209;28;20104;-44
2021/12/16 09:56:47;;;;;;;154.93;26.48;;;7.20;99.90;;;;;;5066862;28;20109;-42
2021/12/16 09:59:14;;;;;;;228.57;30.65;;;7.20;99.90;;;;;;5061162;28;20072;-42
2021/12/16 10:01:47;;;;;;;219.27;28.13;;;7.20;99.90;;;;;;5063508;28;20043;-43
2021/12/16 10:04:19;;;;;;;253.65;29.55;;;7.00;99.90;;;;;;5084009;28;20334;-43
2021/12/16 10:06:48;;;;;;;312.90;31.33;;;7.10;99.90;;;;;;5082331;28;20127;-43
2021/12/16 10:09:14;;;;;;;120.93;22.10;;;7.10;99.90;;;;;;5081368;28;20036;-43
2021/12/16 10:11:44;;;;;;;154.02;25.02;;;7.20;99.90;;;;;;5078174;28;20063;-44
2021/12/16 10:19:21;;;;;;;94.28;19.65;;;7.30;99.90;;;;;;5071377;28;20051;-45
2021/12/16 10:21:47;;;;;;;242.32;28.65;;;;;;;;;;5065191;28;20041;-43
2021/12/16 10:24:26;;;;;;;322.75;49.92;;;7.40;99.90;;;;;;5081108;28;20955;-42
2021/12/16 10:27:20;;;;;;;320.58;74.38;;;7.50;99.90;;;;;;5067303;28;20040;-43
2021/12/16 10:29:59;;;;;;;575.88;138.57;;;7.40;99.90;;;;;;5072918;28;20477;-43
2021/12/16 10:32:30;;;;;;;360.55;165.35;;;7.40;99.90;;;;;;5065382;28;20111;-42
2021/12/16 10:35:03;;;;;;;594.72;233.98;;;7.50;99.90;;;;;;5073661;28;20051;-43
2021/12/16 10:37:36;;;;;;;292.48;114.75;;;7.50;99.90;;;;;;5073691;28;20078;-43
2021/12/16 10:40:27;;;;;;;288.17;68.00;;;7.50;99.90;;;;;;5072972;28;20092;-42
2021/12/16 10:42:54;;;;;;;185.48;30.23;;;7.50;99.90;;;;;;5080331;28;20101;-43
2021/12/16 10:46:00;;;;;;;296.23;35.97;;;7.60;99.90;;;;;;5073276;28;20040;-44
2021/12/16 10:48:37;;;;;;;133.95;35.13;;;7.70;99.90;;;;;;4996843;28;20072;-43
2021/12/16 10:51:16;;;;;;;143.85;21.15;;;7.70;99.90;;;;;;4978915;28;20042;-44
2021/12/16 10:54:08;;;;;;;116.55;41.70;;;7.70;99.90;;;;;;4983572;28;20046;-44
2021/12/16 10:56:41;;;;;;;131.77;34.55;;;7.60;99.90;;;;;;4995582;28;20041;-43
2021/12/16 10:59:37;;;;;;;198.43;37.72;;;7.70;99.90;;;;;;5000264;28;20120;-44
2021/12/16 11:02:16;;;;;;;145.10;26.55;;;7.70;99.90;;;;;;4921251;29;21181;-43
2021/12/16 11:04:49;;;;;;;216.73;42.90;;;7.90;99.90;;;;;;4913771;29;20111;-43
2021/12/16 11:07:16;;;;;;;85.82;21.08;;;7.80;99.90;;;;;;4893225;29;20123;-46
2021/12/16 11:10:13;;;;;;;247.27;34.20;;;7.90;99.90;;;;;;4919536;29;20040;-43
2021/12/16 11:12:48;;;;;;;178.00;59.80;;;7.80;99.90;;;;;;4884425;29;20041;-43
2021/12/16 11:15:18;;;;;;;119.15;21.77;;;7.90;99.90;;;;;;4877315;29;20103;-43
2021/12/16 11:18:00;;;;;;;111.43;18.77;;;7.80;99.90;;;;;;4883354;29;20063;-45
2021/12/16 11:20:45;;;;;;;700.47;134.33;;;8.00;99.90;;;;;;4866248;29;20371;-47
2021/12/16 11:23:12;;;;;;;652.92;173.68;;;7.90;99.90;;;;;;4921840;29;20102;-43
2021/12/16 11:25:48;;;;;;;287.58;42.25;;;8.00;99.90;;;;;;4930386;29;20051;-45
2021/12/16 11:28:24;;;;;;;282.65;25.77;;;8.00;99.90;;;;;;4929763;29;20051;-45
2021/12/16 11:30:53;;;;;;;403.13;131.90;;;8.60;99.90;;;;;;4931845;29;20104;-42
2021/12/16 11:33:38;;;;;;;250.52;93.47;;;8.00;99.90;;;;;;4939468;29;20146;-44
2021/12/16 11:36:06;;;;;;;232.32;52.10;;;8.00;99.90;;;;;;4931791;29;20047;-43
2021/12/16 11:38:36;;;;;;;154.90;34.80;;;8.10;99.90;;;;;;4943629;28;20046;-46
2021/12/16 11:41:10;;;;;;;232.82;29.15;;;8.20;99.90;;;;;;5007366;28;20128;-44
2021/12/16 11:43:47;;;;;;;188.98;26.98;;;9.00;99.90;;;;;;5001554;28;20046;-44
2021/12/16 11:46:23;;;;;;;165.43;31.42;;;8.20;99.90;;;;;;5017506;28;20045;-46
2021/12/16 11:48:51;;;;;;;211.55;29.55;;;8.20;99.90;;;;;;5026818;28;20094;-44
2021/12/16 11:51:23;;;;;;;217.57;40.53;;;8.20;99.90;;;;;;5062970;28;20044;-45
2021/12/16 11:53:57;;;;;;;132.43;22.02;;;8.30;99.90;;;;;;5074672;28;20048;-43
2021/12/16 11:56:37;;;;;;;180.30;25.95;;;8.30;99.90;;;;;;5073440;28;20073;-43
2021/12/16 11:59:05;;;;;;;239.65;63.33;;;8.30;99.90;;;;;;5059935;28;20039;-45
2021/12/16 12:01:32;;;;;;;186.20;28.05;;;8.30;99.90;;;;;;5074245;28;20102;-43
2021/12/16 12:04:07;;;;;;;172.55;29.15;;;8.30;99.90;;;;;;5072317;28;20127;-43
2021/12/16 12:06:34;;;;;;;181.20;26.20;;;8.20;99.90;;;;;;5070437;28;20045;-46
2021/12/16 12:09:01;;;;;;;189.95;27.02;;;8.30;99.90;;;;;;5074061;28;20044;-49
2021/12/16 12:11:31;;;;;;;255.20;30.92;;;8.30;99.90;;;;;;5074155;28;20056;-45
2021/12/16 12:14:04;;;;;;;140.65;26.17;;;8.30;99.90;;;;;;5078861;28;20068;-49
2021/12/16 12:16:41;;;;;;;161.88;26.85;;;8.30;99.90;;;;;;5074686;28;20511;-44
2021/12/16 12:19:10;;;;;;;161.63;26.83;;;8.30;99.90;;;;;;5077814;28;20131;-43
2021/12/16 12:21:56;;;;;;;94.75;21.80;;;8.30;99.90;;;;;;5066017;28;20045;-43
2021/12/16 12:24:25;;;;;;;170.27;26.08;;;8.30;99.90;;;;;;5064768;28;20039;-42
2021/12/16 12:27:08;;;;;;;165.98;27.05;;;8.40;99.90;;;;;;5081564;28;20036;-44
2021/12/16 12:29:42;;;;;;;170.52;25.70;;;8.40;99.90;;;;;;5077876;28;20044;-44
2021/12/16 12:32:12;;;;;;;139.38;25.30;;;8.40;99.90;;;;;;5070504;28;20037;-43
2021/12/16 12:34:41;;;;;;;106.95;23.20;;;8.40;99.90;;;;;;5074794;28;20574;-43
2021/12/16 12:37:11;;;;;;;121.68;25.17;;;8.50;99.90;;;;;;5075901;28;20072;-43
2021/12/16 12:39:42;;;;;;;66.60;20.45;;;9.50;99.90;;;;;;5075261;28;20036;-42
2021/12/16 12:42:11;;;;;;;73.13;21.60;;;8.50;99.90;;;;;;5067417;28;20039;-43
2021/12/16 12:44:37;;;;;;;121.28;24.75;;;8.40;99.90;;;;;;5082375;28;20396;-43
2021/12/16 12:47:06;;;;;;;140.38;24.98;;;8.50;99.90;;;;;;5083206;28;20044;-43
2021/12/16 12:49:32;;;;;;;135.35;26.13;;;8.60;99.90;;;;;;5079562;28;20597;-43
2021/12/16 12:52:08;;;;;;;112.07;24.63;;;10.70;99.90;;;;;;5077554;28;20055;-44
2021/12/16 12:54:36;;;;;;;95.47;23.27;;;8.50;99.90;;;;;;5084297;28;20078;-43
2021/12/16 12:57:18;;;;;;;77.47;23.30;;;8.50;99.90;;;;;;5074678;28;20036;-43
2021/12/16 12:59:45;;;;;;;84.75;22.67;;;8.40;99.90;;;;;;5075266;28;20037;-45
2021/12/16 13:02:46;;;;;;;87.38;24.27;;;8.40;99.90;;;;;;5072922;28;20076;-44
2021/12/16 13:05:20;;;;;;;65.18;21.50;;;8.50;99.90;;;;;;4994310;28;20050;-44
2021/12/16 13:07:54;;;;;;;105.07;25.05;;;8.50;99.90;;;;;;4992539;28;20058;-44
2021/12/16 13:10:24;;;;;;;95.40;24.77;;;9.40;99.90;;;;;;4990542;28;20132;-43
2021/12/16 13:13:15;;;;;;;97.72;25.38;;;8.70;99.90;;;;;;4998247;28;20065;-44
2021/12/16 13:15:50;;;;;;;92.22;22.42;;;8.80;99.90;;;;;;4995743;28;20133;-44
2021/12/16 13:24:03;;;;;;;99.45;26.05;;;9.80;99.90;;;;;;4993495;28;20108;-43
2021/12/16 13:26:49;;;;;;;110.07;24.97;;;8.60;99.90;;;;;;4997882;28;20042;-44
2021/12/16 13:29:53;;;;;;;109.82;24.33;;;8.70;99.90;;;;;;4990731;28;20141;-45
2021/12/16 13:32:33;;;;;;;76.97;19.77;;;8.50;99.90;;;;;;4904723;29;20044;-43
2021/12/16 13:35:33;;;;;;;54.08;16.52;;;8.50;99.90;;;;;;4920902;29;20078;-48
2021/12/16 13:38:05;;;;;;;48.83;15.18;;;8.50;99.90;;;;;;4914933;29;20552;-44
2021/12/16 13:40:34;;;;;;;49.28;14.88;;;8.60;99.90;;;;;;5021123;28;20571;-44
2021/12/16 13:43:09;;;;;;;63.70;17.38;;;8.60;99.90;;;;;;5007396;28;20049;-46
2021/12/16 13:46:08;;;;;;;67.63;17.33;;;8.50;99.90;;;;;;5000201;28;20042;-45
2021/12/16 14:03:15;;;;;;;46.40;10.15;;;8.30;99.90;;;;;;4943230;28;20039;-44
2021/12/16 14:06:20;;;;;;;53.17;12.30;;;8.60;99.90;;;;;;4958056;28;20130;-43
2021/12/16 14:08:51;;;;;;;49.92;12.32;;;8.20;99.90;;;;;;4930461;28;20050;-46
2021/12/16 14:14:43;;;;;;;38.53;12.02;;;8.30;99.90;;;;;;4968849;28;25208;-46
2021/12/16 14:17:29;;;;;;;;;;;8.30;99.90;;;;;;4978721;28;20035;-45
2021/12/16 14:23:06;;;;;;;52.15;13.80;;;8.20;99.90;;;;;;4962039;28;20066;-45
2021/12/16 14:25:54;;;;;;;44.08;12.90;;;8.30;99.90;;;;;;4963562;28;20097;-44
2021/12/16 14:31:12;;;;;;;43.95;13.85;;;8.30;99.90;;;;;;5052762;28;20624;-46
2021/12/16 14:42:12;;;;;;;40.83;13.93;;;8.20;99.90;;;;;;5056378;28;20037;-44
2021/12/16 14:49:50;;;;;;;47.05;15.45;;;8.10;99.90;;;;;;5068495;28;20056;-45
2021/12/16 14:52:20;;;;;;;38.45;14.55;;;8.20;99.90;;;;;;5082397;28;20052;-44
2021/12/16 14:55:04;;;;;;;35.97;13.82;;;8.20;99.90;;;;;;5082749;28;20044;-44
2021/12/16 14:57:39;;;;;;;36.70;15.35;;;8.10;99.90;;;;;;5063076;28;20033;-44
2021/12/16 15:00:28;;;;;;;58.85;18.35;;;8.20;99.90;;;;;;5067440;28;20098;-46
2021/12/16 15:03:09;;;;;;;43.38;14.93;;;8.10;99.90;;;;;;5082272;28;20045;-44
2021/12/16 15:05:43;;;;;;;69.30;18.63;;;8.20;99.90;;;;;;5068730;28;20044;-44
2021/12/16 15:08:31;;;;;;;82.90;21.45;;;8.10;99.90;;;;;;5073447;28;20036;-45
2021/12/16 15:10:59;;;;;;;47.08;18.08;;;8.20;99.90;;;;;;5067207;28;20870;-45
2021/12/16 15:13:35;;;;;;;46.58;17.85;;;8.20;99.90;;;;;;5066679;28;20041;-46
2021/12/16 15:38:11;;;;;;;58.72;21.48;;;8.10;99.90;;;;;;5026738;28;20108;-47
2021/12/16 15:40:55;;;;;;;99.43;23.95;;;8.20;99.90;;;;;;5023101;28;20509;-44
2021/12/16 15:43:22;;;;;;;57.72;20.38;;;8.10;99.90;;;;;;5033327;28;20103;-44
2021/12/16 15:45:52;;;;;;;59.78;20.67;;;8.20;99.90;;;;;;5020820;28;20140;-44
2021/12/16 15:48:18;;;;;;;89.43;23.05;;;8.10;99.90;;;;;;5027450;28;20049;-43
2021/12/16 15:50:54;;;;;;;61.28;20.88;;;8.10;99.90;;;;;;5024523;28;20049;-43
2021/12/16 15:53:23;;;;;;;50.78;19.77;;;8.10;99.90;;;;;;5026958;28;20049;-44
2021/12/16 15:55:59;;;;;;;134.70;25.88;;;8.10;99.90;;;;;;5039383;28;20567;-47
2021/12/16 15:58:32;;;;;;;77.05;23.25;;;8.10;99.90;;;;;;5026366;28;20033;-44
2021/12/16 16:01:07;;;;;;;116.88;25.05;;;8.10;99.90;;;;;;5040398;28;20045;-44
2021/12/16 16:03:33;;;;;;;63.30;21.25;;;8.10;99.90;;;;;;5028857;28;20041;-44
2021/12/16 16:06:02;;;;;;;49.80;21.10;;;8.10;99.90;;;;;;5051121;28;20044;-43
2021/12/16 16:08:32;;;;;;;52.97;19.83;;;8.20;99.90;;;;;;5069093;28;20040;-44
2021/12/16 16:11:05;;;;;;;53.42;20.65;;;8.30;99.90;;;;;;5081469;28;20200;-43
2021/12/16 16:13:40;;;;;;;56.35;21.67;;;8.20;99.90;;;;;;5082144;28;20048;-43
2021/12/16 16:16:07;;;;;;;55.40;20.73;;;8.00;99.90;;;;;;5071348;28;20032;-42
2021/12/16 16:18:40;;;;;;;58.55;21.75;;;8.10;99.90;;;;;;5082869;28;20101;-43
2021/12/16 16:21:15;;;;;;;58.42;21.30;;;8.10;99.90;;;;;;5074391;28;20043;-43
2021/12/16 16:23:44;;;;;;;70.25;23.17;;;8.10;99.90;;;;;;5077272;28;20048;-43
2021/12/16 16:26:13;;;;;;;56.50;22.40;;;8.10;99.90;;;;;;5073744;28;20047;-46
2021/12/16 16:28:43;;;;;;;103.40;27.20;;;8.20;99.90;;;;;;5078605;28;20040;-43
2021/12/16 16:31:12;;;;;;;118.03;27.35;;;8.20;99.90;;;;;;5070126;28;20039;-46
2021/12/16 16:33:38;;;;;;;67.88;24.40;;;8.20;99.90;;;;;;5076395;28;20452;-47
2021/12/16 16:36:11;;;;;;;65.75;24.00;;;8.10;99.90;;;;;;5069543;28;20520;-48
2021/12/16 16:38:42;;;;;;;118.90;31.75;;;8.20;99.90;;;;;;5067395;28;20521;-45
2021/12/16 16:41:12;;;;;;;84.65;27.50;;;8.30;99.90;;;;;;5062682;28;20047;-43
2021/12/16 16:43:47;;;;;;;98.38;28.20;;;8.20;99.90;;;;;;5069465;28;20519;-43
2021/12/16 16:46:39;;;;;;;70.88;23.08;;;8.40;99.90;;;;;;5072131;28;20033;-43
2021/12/16 16:49:09;;;;;;;80.45;25.27;;;8.30;99.90;;;;;;5072604;28;20048;-43
2021/12/16 16:51:44;;;;;;;101.35;29.00;;;8.20;99.90;;;;;;5084155;28;20511;-43
2021/12/16 16:54:27;;;;;;;79.82;26.35;;;8.20;99.90;;;;;;5083165;28;20176;-46
2021/12/16 16:57:15;;;;;;;90.07;28.25;;;8.30;99.90;;;;;;5069927;28;20636;-44
2021/12/16 16:59:42;;;;;;;76.43;26.05;;;8.30;99.90;;;;;;5073196;28;20071;-44
2021/12/16 17:02:23;;;;;;;76.53;26.90;;;8.10;99.90;;;;;;5063514;28;20025;-44
2021/12/16 17:04:53;;;;;;;65.80;24.38;;;8.30;99.90;;;;;;5064200;28;20059;-44